sensor_id;sensor_type;location;lat;lon;timestamp;P1;durP1;ratioP1;P2;durP2;ratioP2
11943;SDS011;6031;50.220;10.122;2023-06-22T00:01:04;7.90;;;7.10;;
11943;SDS011;6031;50.220;10.122;2023-06-22T00:03:29;9.37;;;7.13;;
11943;SDS011;6031;50.220;10.122;2023-06-22T00:05:55;8.00;;;7.20;;
11943;SDS011;6031;50.220;10.122;2023-06-22T00:08:21;8.30;;;7.50;;
11943;SDS011;6031;50.220;10.122;2023-06-22T00:10:47;8.43;;;7.53;;
11943;SDS011;6031;50.220;10.122;2023-06-22T00:13:12;8.20;;;6.80;;
11943;SDS011;6031;50.220;10.122;2023-06-22T00:15:39;7.70;;;7.00;;
11943;SDS011;6031;50.220;10.122;2023-06-22T00:18:07;8.00;;;7.13;;
11943;SDS011;6031;50.220;10.122;2023-06-22T00:20:33;7.87;;;6.83;;
11943;SDS011;6031;50.220;10.122;2023-06-22T00:23:02;8.10;;;7.33;;
11943;SDS011;6031;50.220;10.122;2023-06-22T00:25:36;7.43;;;6.70;;
11943;SDS011;6031;50.220;10.122;2023-06-22T00:28:04;8.40;;;6.63;;
11943;SDS011;6031;50.220;10.122;2023-06-22T00:30:31;11.17;;;7.13;;
11943;SDS011;6031;50.220;10.122;2023-06-22T00:32:57;7.67;;;7.00;;
11943;SDS011;6031;50.220;10.122;2023-06-22T00:35:23;7.27;;;6.67;;
11943;SDS011;6031;50.220;10.122;2023-06-22T00:37:54;9.03;;;7.60;;
11943;SDS011;6031;50.220;10.122;2023-06-22T00:40:25;8.33;;;7.53;;
11943;SDS011;6031;50.220;10.122;2023-06-22T00:42:52;8.47;;;7.67;;
11943;SDS011;6031;50.220;10.122;2023-06-22T00:45:18;7.70;;;6.90;;
11943;SDS011;6031;50.220;10.122;2023-06-22T00:47:44;8.00;;;7.17;;
11943;SDS011;6031;50.220;10.122;2023-06-22T00:50:09;8.27;;;7.20;;
11943;SDS011;6031;50.220;10.122;2023-06-22T00:52:43;9.87;;;7.73;;
11943;SDS011;6031;50.220;10.122;2023-06-22T00:55:11;10.73;;;7.70;;
11943;SDS011;6031;50.220;10.122;2023-06-22T00:57:37;8.57;;;7.77;;
11943;SDS011;6031;50.220;10.122;2023-06-22T01:00:02;11.90;;;7.63;;
11943;SDS011;6031;50.220;10.122;2023-06-22T01:02:33;9.00;;;7.23;;
11943;SDS011;6031;50.220;10.122;2023-06-22T01:04:59;9.07;;;7.43;;
11943;SDS011;6031;50.220;10.122;2023-06-22T01:10:14;9.13;;;7.87;;
11943;SDS011;6031;50.220;10.122;2023-06-22T01:13:06;8.47;;;7.00;;
11943;SDS011;6031;50.220;10.122;2023-06-22T01:15:40;13.33;;;7.20;;
11943;SDS011;6031;50.220;10.122;2023-06-22T01:18:11;12.57;;;7.53;;
11943;SDS011;6031;50.220;10.122;2023-06-22T01:20:39;8.23;;;7.47;;
11943;SDS011;6031;50.220;10.122;2023-06-22T01:23:10;8.43;;;7.53;;
11943;SDS011;6031;50.220;10.122;2023-06-22T01:31:13;8.13;;;7.33;;
11943;SDS011;6031;50.220;10.122;2023-06-22T01:33:42;7.80;;;7.10;;
11943;SDS011;6031;50.220;10.122;2023-06-22T01:36:09;6.73;;;6.13;;
11943;SDS011;6031;50.220;10.122;2023-06-22T01:38:36;8.03;;;7.23;;
11943;SDS011;6031;50.220;10.122;2023-06-22T01:41:03;7.73;;;6.17;;
11943;SDS011;6031;50.220;10.122;2023-06-22T01:43:29;8.03;;;7.23;;
11943;SDS011;6031;50.220;10.122;2023-06-22T01:45:56;7.90;;;7.10;;
11943;SDS011;6031;50.220;10.122;2023-06-22T01:48:24;8.07;;;7.27;;
11943;SDS011;6031;50.220;10.122;2023-06-22T01:50:51;7.50;;;6.90;;
11943;SDS011;6031;50.220;10.122;2023-06-22T01:53:18;8.73;;;7.30;;
11943;SDS011;6031;50.220;10.122;2023-06-22T01:55:45;10.13;;;6.87;;
11943;SDS011;6031;50.220;10.122;2023-06-22T01:58:10;10.87;;;7.30;;
11943;SDS011;6031;50.220;10.122;2023-06-22T02:00:37;8.47;;;7.63;;
11943;SDS011;6031;50.220;10.122;2023-06-22T02:03:11;9.83;;;6.63;;
11943;SDS011;6031;50.220;10.122;2023-06-22T02:05:46;9.07;;;7.93;;
11943;SDS011;6031;50.220;10.122;2023-06-22T02:08:25;8.43;;;6.87;;
11943;SDS011;6031;50.220;10.122;2023-06-22T02:10:55;9.43;;;7.10;;
11943;SDS011;6031;50.220;10.122;2023-06-22T02:13:23;8.03;;;7.23;;
11943;SDS011;6031;50.220;10.122;2023-06-22T02:15:49;7.40;;;6.50;;
11943;SDS011;6031;50.220;10.122;2023-06-22T02:18:16;8.43;;;7.40;;
11943;SDS011;6031;50.220;10.122;2023-06-22T02:20:41;8.93;;;7.23;;
11943;SDS011;6031;50.220;10.122;2023-06-22T02:23:07;7.67;;;6.93;;
11943;SDS011;6031;50.220;10.122;2023-06-22T02:25:33;7.83;;;6.93;;
11943;SDS011;6031;50.220;10.122;2023-06-22T02:27:59;7.80;;;7.10;;
11943;SDS011;6031;50.220;10.122;2023-06-22T02:30:24;7.63;;;6.57;;
11943;SDS011;6031;50.220;10.122;2023-06-22T02:32:50;8.07;;;6.97;;
11943;SDS011;6031;50.220;10.122;2023-06-22T02:35:29;6.97;;;6.30;;
11943;SDS011;6031;50.220;10.122;2023-06-22T02:38:00;7.57;;;6.93;;
11943;SDS011;6031;50.220;10.122;2023-06-22T02:40:27;9.57;;;6.73;;
11943;SDS011;6031;50.220;10.122;2023-06-22T02:42:56;9.07;;;7.13;;
11943;SDS011;6031;50.220;10.122;2023-06-22T02:45:26;8.80;;;7.50;;
11943;SDS011;6031;50.220;10.122;2023-06-22T02:47:52;7.13;;;6.43;;
11943;SDS011;6031;50.220;10.122;2023-06-22T02:50:17;7.77;;;6.93;;
11943;SDS011;6031;50.220;10.122;2023-06-22T02:52:43;9.43;;;7.47;;
11943;SDS011;6031;50.220;10.122;2023-06-22T02:55:08;9.43;;;7.47;;
11943;SDS011;6031;50.220;10.122;2023-06-22T02:57:34;7.83;;;7.00;;
11943;SDS011;6031;50.220;10.122;2023-06-22T02:59:59;10.30;;;7.77;;
11943;SDS011;6031;50.220;10.122;2023-06-22T03:02:27;10.83;;;7.03;;
11943;SDS011;6031;50.220;10.122;2023-06-22T03:04:53;8.07;;;7.30;;
11943;SDS011;6031;50.220;10.122;2023-06-22T03:07:19;8.53;;;7.70;;
11943;SDS011;6031;50.220;10.122;2023-06-22T03:09:45;7.53;;;6.77;;
11943;SDS011;6031;50.220;10.122;2023-06-22T03:12:10;7.43;;;6.33;;
11943;SDS011;6031;50.220;10.122;2023-06-22T03:14:36;8.17;;;7.07;;
11943;SDS011;6031;50.220;10.122;2023-06-22T03:17:02;8.17;;;6.57;;
11943;SDS011;6031;50.220;10.122;2023-06-22T03:19:29;8.07;;;7.27;;
11943;SDS011;6031;50.220;10.122;2023-06-22T03:21:56;8.27;;;7.17;;
11943;SDS011;6031;50.220;10.122;2023-06-22T03:24:22;7.80;;;7.00;;
11943;SDS011;6031;50.220;10.122;2023-06-22T03:26:48;7.70;;;7.00;;
11943;SDS011;6031;50.220;10.122;2023-06-22T03:29:13;8.83;;;7.37;;
11943;SDS011;6031;50.220;10.122;2023-06-22T03:31:39;8.50;;;7.67;;
11943;SDS011;6031;50.220;10.122;2023-06-22T03:34:04;7.10;;;6.40;;
11943;SDS011;6031;50.220;10.122;2023-06-22T03:36:30;8.50;;;7.57;;
11943;SDS011;6031;50.220;10.122;2023-06-22T03:38:55;7.87;;;7.17;;
11943;SDS011;6031;50.220;10.122;2023-06-22T03:41:21;8.30;;;7.40;;
11943;SDS011;6031;50.220;10.122;2023-06-22T03:43:46;8.50;;;7.80;;
11943;SDS011;6031;50.220;10.122;2023-06-22T03:46:12;7.63;;;6.83;;
11943;SDS011;6031;50.220;10.122;2023-06-22T03:48:38;10.37;;;8.23;;
11943;SDS011;6031;50.220;10.122;2023-06-22T03:51:03;8.50;;;7.73;;
11943;SDS011;6031;50.220;10.122;2023-06-22T03:53:29;8.53;;;7.73;;
11943;SDS011;6031;50.220;10.122;2023-06-22T03:55:55;8.80;;;7.63;;
11943;SDS011;6031;50.220;10.122;2023-06-22T03:58:21;7.60;;;6.93;;
11943;SDS011;6031;50.220;10.122;2023-06-22T04:00:47;7.90;;;7.10;;
11943;SDS011;6031;50.220;10.122;2023-06-22T04:03:14;8.33;;;7.53;;
11943;SDS011;6031;50.220;10.122;2023-06-22T04:05:40;8.00;;;7.20;;
11943;SDS011;6031;50.220;10.122;2023-06-22T04:08:06;8.23;;;7.37;;
11943;SDS011;6031;50.220;10.122;2023-06-22T04:10:32;8.27;;;6.93;;
11943;SDS011;6031;50.220;10.122;2023-06-22T04:12:59;10.00;;;7.90;;
11943;SDS011;6031;50.220;10.122;2023-06-22T04:15:25;6.80;;;6.20;;
11943;SDS011;6031;50.220;10.122;2023-06-22T04:17:50;7.27;;;6.67;;
11943;SDS011;6031;50.220;10.122;2023-06-22T04:20:16;8.97;;;6.60;;
11943;SDS011;6031;50.220;10.122;2023-06-22T04:22:42;7.30;;;6.70;;
11943;SDS011;6031;50.220;10.122;2023-06-22T04:25:07;8.33;;;7.13;;
11943;SDS011;6031;50.220;10.122;2023-06-22T04:27:33;10.90;;;7.27;;
11943;SDS011;6031;50.220;10.122;2023-06-22T04:30:06;9.30;;;7.50;;
11943;SDS011;6031;50.220;10.122;2023-06-22T04:32:33;8.27;;;7.37;;
11943;SDS011;6031;50.220;10.122;2023-06-22T04:35:01;7.70;;;6.67;;
11943;SDS011;6031;50.220;10.122;2023-06-22T04:37:29;8.20;;;7.27;;
11943;SDS011;6031;50.220;10.122;2023-06-22T04:39:55;8.23;;;6.97;;
11943;SDS011;6031;50.220;10.122;2023-06-22T04:42:20;7.37;;;6.63;;
11943;SDS011;6031;50.220;10.122;2023-06-22T04:44:46;7.50;;;6.53;;
11943;SDS011;6031;50.220;10.122;2023-06-22T04:47:11;8.37;;;7.57;;
11943;SDS011;6031;50.220;10.122;2023-06-22T04:49:37;8.00;;;7.30;;
11943;SDS011;6031;50.220;10.122;2023-06-22T04:52:03;12.53;;;7.73;;
11943;SDS011;6031;50.220;10.122;2023-06-22T04:54:30;9.10;;;7.73;;
11943;SDS011;6031;50.220;10.122;2023-06-22T04:56:59;7.33;;;6.47;;
11943;SDS011;6031;50.220;10.122;2023-06-22T04:59:26;10.63;;;7.27;;
11943;SDS011;6031;50.220;10.122;2023-06-22T05:01:55;11.57;;;7.73;;
11943;SDS011;6031;50.220;10.122;2023-06-22T05:04:22;9.63;;;7.50;;
11943;SDS011;6031;50.220;10.122;2023-06-22T05:06:51;8.27;;;7.47;;
11943;SDS011;6031;50.220;10.122;2023-06-22T05:09:17;8.37;;;6.97;;
11943;SDS011;6031;50.220;10.122;2023-06-22T05:11:43;8.63;;;6.97;;
11943;SDS011;6031;50.220;10.122;2023-06-22T05:14:09;9.00;;;7.43;;
11943;SDS011;6031;50.220;10.122;2023-06-22T05:16:36;10.77;;;7.27;;
11943;SDS011;6031;50.220;10.122;2023-06-22T05:19:02;8.27;;;6.93;;
11943;SDS011;6031;50.220;10.122;2023-06-22T05:21:31;8.00;;;7.13;;
11943;SDS011;6031;50.220;10.122;2023-06-22T05:23:57;9.47;;;7.47;;
11943;SDS011;6031;50.220;10.122;2023-06-22T05:26:34;8.07;;;7.37;;
11943;SDS011;6031;50.220;10.122;2023-06-22T05:29:00;8.10;;;7.30;;
11943;SDS011;6031;50.220;10.122;2023-06-22T05:31:26;8.57;;;7.30;;
11943;SDS011;6031;50.220;10.122;2023-06-22T05:33:52;8.27;;;7.57;;
11943;SDS011;6031;50.220;10.122;2023-06-22T05:36:19;8.23;;;6.93;;
11943;SDS011;6031;50.220;10.122;2023-06-22T05:38:46;8.30;;;7.40;;
11943;SDS011;6031;50.220;10.122;2023-06-22T05:41:12;8.67;;;7.67;;
11943;SDS011;6031;50.220;10.122;2023-06-22T05:43:37;7.67;;;6.90;;
11943;SDS011;6031;50.220;10.122;2023-06-22T05:46:03;7.80;;;7.10;;
11943;SDS011;6031;50.220;10.122;2023-06-22T05:48:29;7.97;;;7.10;;
11943;SDS011;6031;50.220;10.122;2023-06-22T05:50:54;7.73;;;7.03;;
11943;SDS011;6031;50.220;10.122;2023-06-22T05:53:20;7.63;;;6.97;;
11943;SDS011;6031;50.220;10.122;2023-06-22T05:55:46;9.37;;;7.90;;
11943;SDS011;6031;50.220;10.122;2023-06-22T05:58:11;10.17;;;7.17;;
11943;SDS011;6031;50.220;10.122;2023-06-22T06:00:38;7.60;;;6.90;;
11943;SDS011;6031;50.220;10.122;2023-06-22T06:03:04;8.97;;;7.83;;
11943;SDS011;6031;50.220;10.122;2023-06-22T06:05:30;8.33;;;7.53;;
11943;SDS011;6031;50.220;10.122;2023-06-22T06:07:57;9.00;;;8.00;;
11943;SDS011;6031;50.220;10.122;2023-06-22T06:10:23;6.67;;;5.37;;
11943;SDS011;6031;50.220;10.122;2023-06-22T06:12:48;7.43;;;6.63;;
11943;SDS011;6031;50.220;10.122;2023-06-22T06:15:14;7.25;;;6.60;;
11943;SDS011;6031;50.220;10.122;2023-06-22T06:17:46;7.97;;;6.43;;
11943;SDS011;6031;50.220;10.122;2023-06-22T06:20:15;9.13;;;6.63;;
11943;SDS011;6031;50.220;10.122;2023-06-22T06:22:42;7.15;;;6.45;;
11943;SDS011;6031;50.220;10.122;2023-06-22T06:25:08;8.73;;;7.07;;
11943;SDS011;6031;50.220;10.122;2023-06-22T06:27:34;13.27;;;7.45;;
11943;SDS011;6031;50.220;10.122;2023-06-22T06:29:59;14.25;;;7.63;;
11943;SDS011;6031;50.220;10.122;2023-06-22T06:32:25;7.65;;;6.95;;
11943;SDS011;6031;50.220;10.122;2023-06-22T06:34:50;9.80;;;7.50;;
11943;SDS011;6031;50.220;10.122;2023-06-22T06:37:16;8.05;;;7.25;;
11943;SDS011;6031;50.220;10.122;2023-06-22T06:39:43;7.50;;;6.78;;
11943;SDS011;6031;50.220;10.122;2023-06-22T06:42:09;7.32;;;6.57;;
11943;SDS011;6031;50.220;10.122;2023-06-22T06:44:36;6.82;;;6.13;;
11943;SDS011;6031;50.220;10.122;2023-06-22T06:47:02;9.65;;;6.53;;
11943;SDS011;6031;50.220;10.122;2023-06-22T06:49:29;7.82;;;7.07;;
11943;SDS011;6031;50.220;10.122;2023-06-22T06:51:54;10.77;;;7.45;;
11943;SDS011;6031;50.220;10.122;2023-06-22T06:54:21;8.07;;;7.38;;
11943;SDS011;6031;50.220;10.122;2023-06-22T06:56:46;6.93;;;6.32;;
11943;SDS011;6031;50.220;10.122;2023-06-22T06:59:13;7.38;;;6.60;;
11943;SDS011;6031;50.220;10.122;2023-06-22T07:01:41;8.07;;;6.13;;
11943;SDS011;6031;50.220;10.122;2023-06-22T07:04:09;11.95;;;6.68;;
11943;SDS011;6031;50.220;10.122;2023-06-22T07:06:34;7.28;;;6.45;;
11943;SDS011;6031;50.220;10.122;2023-06-22T07:09:00;5.20;;;4.75;;
11943;SDS011;6031;50.220;10.122;2023-06-22T07:11:26;8.20;;;7.30;;
11943;SDS011;6031;50.220;10.122;2023-06-22T07:13:52;6.70;;;5.97;;
11943;SDS011;6031;50.220;10.122;2023-06-22T07:16:17;8.00;;;6.45;;
11943;SDS011;6031;50.220;10.122;2023-06-22T07:18:43;7.38;;;6.68;;
11943;SDS011;6031;50.220;10.122;2023-06-22T07:21:08;6.35;;;5.80;;
11943;SDS011;6031;50.220;10.122;2023-06-22T07:23:34;10.60;;;6.53;;
11943;SDS011;6031;50.220;10.122;2023-06-22T07:26:00;6.82;;;6.22;;
11943;SDS011;6031;50.220;10.122;2023-06-22T07:28:31;11.40;;;7.65;;
11943;SDS011;6031;50.220;10.122;2023-06-22T07:31:01;9.23;;;6.68;;
11943;SDS011;6031;50.220;10.122;2023-06-22T07:33:28;10.52;;;6.72;;
11943;SDS011;6031;50.220;10.122;2023-06-22T07:35:54;7.90;;;6.60;;
11943;SDS011;6031;50.220;10.122;2023-06-22T07:38:19;9.07;;;6.03;;
11943;SDS011;6031;50.220;10.122;2023-06-22T07:40:45;7.68;;;6.90;;
11943;SDS011;6031;50.220;10.122;2023-06-22T07:43:10;7.28;;;6.65;;
11943;SDS011;6031;50.220;10.122;2023-06-22T07:45:37;8.40;;;6.53;;
11943;SDS011;6031;50.220;10.122;2023-06-22T07:48:04;7.03;;;6.32;;
11943;SDS011;6031;50.220;10.122;2023-06-22T07:50:30;7.15;;;6.55;;
11943;SDS011;6031;50.220;10.122;2023-06-22T07:52:56;6.50;;;6.00;;
11943;SDS011;6031;50.220;10.122;2023-06-22T07:55:21;6.43;;;5.82;;
11943;SDS011;6031;50.220;10.122;2023-06-22T07:57:48;7.45;;;6.50;;
11943;SDS011;6031;50.220;10.122;2023-06-22T08:00:16;6.85;;;6.25;;
11943;SDS011;6031;50.220;10.122;2023-06-22T08:02:44;6.72;;;6.13;;
11943;SDS011;6031;50.220;10.122;2023-06-22T08:05:11;6.93;;;6.28;;
11943;SDS011;6031;50.220;10.122;2023-06-22T08:07:37;6.70;;;6.20;;
11943;SDS011;6031;50.220;10.122;2023-06-22T08:10:04;9.45;;;6.75;;
11943;SDS011;6031;50.220;10.122;2023-06-22T08:12:30;9.93;;;6.82;;
11943;SDS011;6031;50.220;10.122;2023-06-22T08:14:56;7.15;;;6.45;;
11943;SDS011;6031;50.220;10.122;2023-06-22T08:17:22;7.00;;;6.40;;
11943;SDS011;6031;50.220;10.122;2023-06-22T08:19:48;6.85;;;6.18;;
11943;SDS011;6031;50.220;10.122;2023-06-22T08:22:13;7.45;;;6.85;;
11943;SDS011;6031;50.220;10.122;2023-06-22T08:24:40;7.03;;;6.53;;
11943;SDS011;6031;50.220;10.122;2023-06-22T08:27:07;6.72;;;6.13;;
11943;SDS011;6031;50.220;10.122;2023-06-22T08:29:39;7.95;;;6.80;;
11943;SDS011;6031;50.220;10.122;2023-06-22T08:32:07;6.78;;;6.20;;
11943;SDS011;6031;50.220;10.122;2023-06-22T08:34:34;6.28;;;5.72;;
11943;SDS011;6031;50.220;10.122;2023-06-22T08:36:59;5.85;;;5.38;;
11943;SDS011;6031;50.220;10.122;2023-06-22T08:39:25;6.78;;;6.03;;
11943;SDS011;6031;50.220;10.122;2023-06-22T08:41:51;7.05;;;5.72;;
11943;SDS011;6031;50.220;10.122;2023-06-22T08:44:18;6.53;;;5.93;;
11943;SDS011;6031;50.220;10.122;2023-06-22T08:46:44;6.55;;;5.63;;
11943;SDS011;6031;50.220;10.122;2023-06-22T08:49:10;8.18;;;6.10;;
11943;SDS011;6031;50.220;10.122;2023-06-22T08:51:36;6.63;;;5.90;;
11943;SDS011;6031;50.220;10.122;2023-06-22T08:54:01;8.10;;;6.35;;
11943;SDS011;6031;50.220;10.122;2023-06-22T08:56:27;5.63;;;5.22;;
11943;SDS011;6031;50.220;10.122;2023-06-22T08:58:52;6.32;;;5.72;;
11943;SDS011;6031;50.220;10.122;2023-06-22T09:01:18;6.70;;;5.82;;
11943;SDS011;6031;50.220;10.122;2023-06-22T09:03:44;6.18;;;5.50;;
11943;SDS011;6031;50.220;10.122;2023-06-22T09:06:18;6.68;;;5.95;;
11943;SDS011;6031;50.220;10.122;2023-06-22T09:08:44;8.45;;;5.97;;
11943;SDS011;6031;50.220;10.122;2023-06-22T09:11:11;6.80;;;5.97;;
11943;SDS011;6031;50.220;10.122;2023-06-22T09:13:36;7.22;;;5.97;;
11943;SDS011;6031;50.220;10.122;2023-06-22T09:16:02;8.07;;;5.75;;
11943;SDS011;6031;50.220;10.122;2023-06-22T09:18:28;6.70;;;6.10;;
11943;SDS011;6031;50.220;10.122;2023-06-22T09:20:53;6.75;;;6.20;;
11943;SDS011;6031;50.220;10.122;2023-06-22T09:23:19;6.70;;;6.10;;
11943;SDS011;6031;50.220;10.122;2023-06-22T09:25:44;7.22;;;6.57;;
11943;SDS011;6031;50.220;10.122;2023-06-22T09:28:11;5.18;;;4.72;;
11943;SDS011;6031;50.220;10.122;2023-06-22T09:30:37;4.43;;;4.05;;
11943;SDS011;6031;50.220;10.122;2023-06-22T09:33:02;10.18;;;6.13;;
11943;SDS011;6031;50.220;10.122;2023-06-22T09:35:28;6.93;;;5.65;;
11943;SDS011;6031;50.220;10.122;2023-06-22T09:37:53;8.35;;;7.00;;
11943;SDS011;6031;50.220;10.122;2023-06-22T09:40:19;7.13;;;6.53;;
11943;SDS011;6031;50.220;10.122;2023-06-22T09:42:45;5.88;;;4.80;;
11943;SDS011;6031;50.220;10.122;2023-06-22T09:45:10;9.55;;;6.40;;
11943;SDS011;6031;50.220;10.122;2023-06-22T09:47:36;10.63;;;6.20;;
11943;SDS011;6031;50.220;10.122;2023-06-22T09:50:02;7.05;;;6.35;;
11943;SDS011;6031;50.220;10.122;2023-06-22T09:52:28;6.88;;;6.28;;
11943;SDS011;6031;50.220;10.122;2023-06-22T09:54:53;7.65;;;6.72;;
11943;SDS011;6031;50.220;10.122;2023-06-22T09:57:19;8.38;;;6.20;;
11943;SDS011;6031;50.220;10.122;2023-06-22T09:59:44;8.10;;;7.03;;
11943;SDS011;6031;50.220;10.122;2023-06-22T10:02:10;10.45;;;6.57;;
11943;SDS011;6031;50.220;10.122;2023-06-22T10:04:35;7.18;;;6.32;;
11943;SDS011;6031;50.220;10.122;2023-06-22T10:07:01;7.38;;;6.78;;
11943;SDS011;6031;50.220;10.122;2023-06-22T10:09:27;6.60;;;5.93;;
11943;SDS011;6031;50.220;10.122;2023-06-22T10:11:53;7.68;;;6.90;;
11943;SDS011;6031;50.220;10.122;2023-06-22T10:14:19;7.78;;;7.07;;
11943;SDS011;6031;50.220;10.122;2023-06-22T10:16:44;6.63;;;6.13;;
11943;SDS011;6031;50.220;10.122;2023-06-22T10:19:10;7.13;;;6.55;;
11943;SDS011;6031;50.220;10.122;2023-06-22T10:21:35;6.88;;;6.22;;
11943;SDS011;6031;50.220;10.122;2023-06-22T10:24:01;7.03;;;6.32;;
11943;SDS011;6031;50.220;10.122;2023-06-22T10:26:31;6.60;;;6.10;;
11943;SDS011;6031;50.220;10.122;2023-06-22T10:28:57;7.15;;;6.45;;
11943;SDS011;6031;50.220;10.122;2023-06-22T10:31:23;6.72;;;6.20;;
11943;SDS011;6031;50.220;10.122;2023-06-22T10:33:48;6.93;;;6.32;;
11943;SDS011;6031;50.220;10.122;2023-06-22T10:36:14;7.40;;;6.78;;
11943;SDS011;6031;50.220;10.122;2023-06-22T10:38:40;8.68;;;6.32;;
11943;SDS011;6031;50.220;10.122;2023-06-22T10:41:05;7.30;;;6.60;;
11943;SDS011;6031;50.220;10.122;2023-06-22T10:43:31;7.57;;;6.88;;
11943;SDS011;6031;50.220;10.122;2023-06-22T10:45:57;7.88;;;6.45;;
11943;SDS011;6031;50.220;10.122;2023-06-22T10:48:22;10.35;;;6.53;;
11943;SDS011;6031;50.220;10.122;2023-06-22T10:50:48;6.55;;;5.78;;
11943;SDS011;6031;50.220;10.122;2023-06-22T10:53:13;7.18;;;6.43;;
11943;SDS011;6031;50.220;10.122;2023-06-22T10:55:39;6.85;;;6.15;;
11943;SDS011;6031;50.220;10.122;2023-06-22T10:58:04;7.07;;;6.47;;
11943;SDS011;6031;50.220;10.122;2023-06-22T11:00:30;7.13;;;5.82;;
11943;SDS011;6031;50.220;10.122;2023-06-22T11:02:55;6.72;;;5.68;;
11943;SDS011;6031;50.220;10.122;2023-06-22T11:05:21;6.35;;;5.70;;
11943;SDS011;6031;50.220;10.122;2023-06-22T11:07:47;6.32;;;5.82;;
11943;SDS011;6031;50.220;10.122;2023-06-22T11:10:14;7.65;;;6.38;;
11943;SDS011;6031;50.220;10.122;2023-06-22T11:12:40;8.30;;;5.88;;
11943;SDS011;6031;50.220;10.122;2023-06-22T11:15:07;7.30;;;6.60;;
11943;SDS011;6031;50.220;10.122;2023-06-22T11:17:33;7.30;;;6.20;;
11943;SDS011;6031;50.220;10.122;2023-06-22T11:19:58;8.98;;;6.20;;
11943;SDS011;6031;50.220;10.122;2023-06-22T11:22:25;8.20;;;6.00;;
11943;SDS011;6031;50.220;10.122;2023-06-22T11:24:51;7.90;;;6.10;;
11943;SDS011;6031;50.220;10.122;2023-06-22T11:27:16;7.97;;;6.63;;
11943;SDS011;6031;50.220;10.122;2023-06-22T11:29:42;10.50;;;5.88;;
11943;SDS011;6031;50.220;10.122;2023-06-22T11:32:07;6.00;;;5.50;;
11943;SDS011;6031;50.220;10.122;2023-06-22T11:34:33;6.72;;;5.85;;
11943;SDS011;6031;50.220;10.122;2023-06-22T11:36:59;7.45;;;6.10;;
11943;SDS011;6031;50.220;10.122;2023-06-22T11:39:24;7.00;;;6.40;;
11943;SDS011;6031;50.220;10.122;2023-06-22T11:41:49;4.72;;;4.10;;
11943;SDS011;6031;50.220;10.122;2023-06-22T11:44:15;7.13;;;6.43;;
11943;SDS011;6031;50.220;10.122;2023-06-22T11:46:40;7.15;;;6.53;;
11943;SDS011;6031;50.220;10.122;2023-06-22T11:49:06;6.63;;;6.03;;
11943;SDS011;6031;50.220;10.122;2023-06-22T11:51:32;4.88;;;4.05;;
11943;SDS011;6031;50.220;10.122;2023-06-22T11:53:58;6.05;;;5.50;;
11943;SDS011;6031;50.220;10.122;2023-06-22T11:56:23;6.82;;;6.22;;
11943;SDS011;6031;50.220;10.122;2023-06-22T11:58:49;7.05;;;6.38;;
11943;SDS011;6031;50.220;10.122;2023-06-22T12:01:14;4.53;;;4.10;;
11943;SDS011;6031;50.220;10.122;2023-06-22T12:03:40;10.05;;;6.18;;
11943;SDS011;6031;50.220;10.122;2023-06-22T12:06:08;6.45;;;5.85;;
11943;SDS011;6031;50.220;10.122;2023-06-22T12:08:33;7.82;;;6.25;;
11943;SDS011;6031;50.220;10.122;2023-06-22T12:10:59;6.03;;;4.13;;
11943;SDS011;6031;50.220;10.122;2023-06-22T12:13:24;6.40;;;5.90;;
11943;SDS011;6031;50.220;10.122;2023-06-22T12:15:50;6.85;;;6.00;;
11943;SDS011;6031;50.220;10.122;2023-06-22T12:18:17;6.65;;;6.07;;
11943;SDS011;6031;50.220;10.122;2023-06-22T12:20:45;6.28;;;5.78;;
11943;SDS011;6031;50.220;10.122;2023-06-22T12:23:11;6.35;;;5.82;;
11943;SDS011;6031;50.220;10.122;2023-06-22T12:25:36;6.32;;;5.40;;
11943;SDS011;6031;50.220;10.122;2023-06-22T12:28:02;6.70;;;6.13;;
11943;SDS011;6031;50.220;10.122;2023-06-22T12:30:29;7.07;;;6.18;;
11943;SDS011;6031;50.220;10.122;2023-06-22T12:32:55;6.65;;;6.05;;
11943;SDS011;6031;50.220;10.122;2023-06-22T12:35:20;7.68;;;6.88;;
11943;SDS011;6031;50.220;10.122;2023-06-22T12:37:46;6.68;;;5.97;;
11943;SDS011;6031;50.220;10.122;2023-06-22T12:40:11;6.63;;;6.00;;
11943;SDS011;6031;50.220;10.122;2023-06-22T12:42:37;6.75;;;6.00;;
11943;SDS011;6031;50.220;10.122;2023-06-22T12:45:03;6.40;;;5.80;;
11943;SDS011;6031;50.220;10.122;2023-06-22T12:47:29;6.95;;;5.90;;
11943;SDS011;6031;50.220;10.122;2023-06-22T12:49:54;6.40;;;5.65;;
11943;SDS011;6031;50.220;10.122;2023-06-22T12:52:20;6.65;;;5.95;;
11943;SDS011;6031;50.220;10.122;2023-06-22T12:54:45;6.13;;;5.63;;
11943;SDS011;6031;50.220;10.122;2023-06-22T12:57:11;4.78;;;4.32;;
11943;SDS011;6031;50.220;10.122;2023-06-22T12:59:36;6.85;;;5.20;;
11943;SDS011;6031;50.220;10.122;2023-06-22T13:02:02;7.32;;;5.90;;
11943;SDS011;6031;50.220;10.122;2023-06-22T13:04:28;5.25;;;4.65;;
11943;SDS011;6031;50.220;10.122;2023-06-22T13:06:53;8.05;;;5.20;;
11943;SDS011;6031;50.220;10.122;2023-06-22T13:09:19;7.18;;;5.70;;
11943;SDS011;6031;50.220;10.122;2023-06-22T13:11:45;6.60;;;5.75;;
11943;SDS011;6031;50.220;10.122;2023-06-22T13:14:10;7.40;;;5.38;;
11943;SDS011;6031;50.220;10.122;2023-06-22T13:16:36;8.68;;;5.40;;
11943;SDS011;6031;50.220;10.122;2023-06-22T13:19:01;8.02;;;5.57;;
11943;SDS011;6031;50.220;10.122;2023-06-22T13:21:27;6.20;;;5.60;;
11943;SDS011;6031;50.220;10.122;2023-06-22T13:23:52;6.00;;;5.30;;
11943;SDS011;6031;50.220;10.122;2023-06-22T13:26:18;6.53;;;5.45;;
11943;SDS011;6031;50.220;10.122;2023-06-22T13:28:43;8.02;;;4.82;;
11943;SDS011;6031;50.220;10.122;2023-06-22T13:31:09;6.45;;;5.45;;
11943;SDS011;6031;50.220;10.122;2023-06-22T13:33:34;12.45;;;5.90;;
11943;SDS011;6031;50.220;10.122;2023-06-22T13:36:00;6.47;;;5.40;;
11943;SDS011;6031;50.220;10.122;2023-06-22T13:38:28;5.68;;;5.07;;
11943;SDS011;6031;50.220;10.122;2023-06-22T13:40:54;7.22;;;5.80;;
11943;SDS011;6031;50.220;10.122;2023-06-22T13:43:22;9.40;;;5.82;;
11943;SDS011;6031;50.220;10.122;2023-06-22T13:45:48;7.93;;;6.22;;
11943;SDS011;6031;50.220;10.122;2023-06-22T13:48:14;6.68;;;5.30;;
11943;SDS011;6031;50.220;10.122;2023-06-22T13:50:39;5.25;;;4.75;;
11943;SDS011;6031;50.220;10.122;2023-06-22T13:53:05;8.30;;;5.53;;
11943;SDS011;6031;50.220;10.122;2023-06-22T13:55:30;8.05;;;5.65;;
11943;SDS011;6031;50.220;10.122;2023-06-22T13:57:56;9.35;;;5.78;;
11943;SDS011;6031;50.220;10.122;2023-06-22T14:00:21;6.63;;;5.40;;
11943;SDS011;6031;50.220;10.122;2023-06-22T14:02:47;6.97;;;5.30;;
11943;SDS011;6031;50.220;10.122;2023-06-22T14:05:12;5.75;;;5.03;;
11943;SDS011;6031;50.220;10.122;2023-06-22T14:07:38;7.53;;;6.05;;
11943;SDS011;6031;50.220;10.122;2023-06-22T14:10:03;6.10;;;5.50;;
11943;SDS011;6031;50.220;10.122;2023-06-22T14:12:29;6.53;;;5.88;;
11943;SDS011;6031;50.220;10.122;2023-06-22T14:14:55;5.75;;;4.93;;
11943;SDS011;6031;50.220;10.122;2023-06-22T14:17:21;5.63;;;4.97;;
11943;SDS011;6031;50.220;10.122;2023-06-22T14:19:50;5.07;;;4.65;;
11943;SDS011;6031;50.220;10.122;2023-06-22T14:22:20;8.93;;;5.63;;
11943;SDS011;6031;50.220;10.122;2023-06-22T14:24:47;7.32;;;4.45;;
11943;SDS011;6031;50.220;10.122;2023-06-22T14:27:13;5.50;;;4.85;;
11943;SDS011;6031;50.220;10.122;2023-06-22T14:29:38;7.15;;;5.18;;
11943;SDS011;6031;50.220;10.122;2023-06-22T14:32:04;9.32;;;5.47;;
11943;SDS011;6031;50.220;10.122;2023-06-22T14:34:31;6.82;;;4.20;;
11943;SDS011;6031;50.220;10.122;2023-06-22T14:36:57;9.27;;;4.63;;
11943;SDS011;6031;50.220;10.122;2023-06-22T14:39:23;8.80;;;4.50;;
11943;SDS011;6031;50.220;10.122;2023-06-22T14:41:48;6.35;;;4.25;;
11943;SDS011;6031;50.220;10.122;2023-06-22T14:44:14;5.35;;;4.78;;
11943;SDS011;6031;50.220;10.122;2023-06-22T14:46:39;6.05;;;5.05;;
11943;SDS011;6031;50.220;10.122;2023-06-22T14:49:05;5.55;;;4.43;;